Aparri, Philippines
Current Conditions -  °F | °C
As of 8:00 AM on Thursday 18 Dec 2014 (Local Time) from RPLI Reporting Station
Broken Clouds Broken Clouds  
Wind Chill: 77°   Ceiling: 29000
Heat Index: 79°   Visibility: 6mi
Dew Point: 63°   Wind: 9mph
Humidity: 61%   Direction: 40°NE
Pressure: 30.03"   Gusts: NA
Location:  18.36°N, 121.64°E
Report Text: RPLI 180000Z 04008KT 9999 FEW019 BKN290 25/17 Q1017 NOSIG RMK A3003
Loading
Personal Weather Stations






























Interactive Weather Map New forecast layout! Learn more

10-Day Weather Forecast

Advertisements
Track Severe Weather on mobile